sensor_id;sensor_type;location;lat;lon;timestamp;P1;durP1;ratioP1;P2;durP2;ratioP2
5379;SDS011;2713;42.680;23.310;2024-02-16T00:00:58;17.87;;;11.27;;
5379;SDS011;2713;42.680;23.310;2024-02-16T00:03:26;17.63;;;11.50;;
5379;SDS011;2713;42.680;23.310;2024-02-16T00:05:52;18.20;;;11.77;;
5379;SDS011;2713;42.680;23.310;2024-02-16T00:08:19;17.47;;;11.73;;
5379;SDS011;2713;42.680;23.310;2024-02-16T00:11:05;14.20;;;10.67;;
5379;SDS011;2713;42.680;23.310;2024-02-16T00:13:32;15.47;;;10.60;;
5379;SDS011;2713;42.680;23.310;2024-02-16T00:16:00;14.70;;;10.50;;
5379;SDS011;2713;42.680;23.310;2024-02-16T00:18:27;16.47;;;11.00;;
5379;SDS011;2713;42.680;23.310;2024-02-16T00:20:54;16.40;;;11.17;;
5379;SDS011;2713;42.680;23.310;2024-02-16T00:23:21;16.80;;;10.70;;
5379;SDS011;2713;42.680;23.310;2024-02-16T00:25:49;15.23;;;11.20;;
5379;SDS011;2713;42.680;23.310;2024-02-16T00:28:16;17.83;;;11.70;;
5379;SDS011;2713;42.680;23.310;2024-02-16T00:30:44;13.33;;;10.43;;
5379;SDS011;2713;42.680;23.310;2024-02-16T00:33:13;16.47;;;10.43;;
5379;SDS011;2713;42.680;23.310;2024-02-16T00:35:42;12.93;;;10.30;;
5379;SDS011;2713;42.680;23.310;2024-02-16T00:38:09;18.07;;;10.87;;
5379;SDS011;2713;42.680;23.310;2024-02-16T00:40:36;14.60;;;11.20;;
5379;SDS011;2713;42.680;23.310;2024-02-16T00:43:08;16.73;;;11.30;;
5379;SDS011;2713;42.680;23.310;2024-02-16T00:45:35;15.70;;;10.30;;
5379;SDS011;2713;42.680;23.310;2024-02-16T00:48:03;15.43;;;10.77;;
5379;SDS011;2713;42.680;23.310;2024-02-16T00:50:33;15.57;;;11.13;;
5379;SDS011;2713;42.680;23.310;2024-02-16T00:53:00;17.77;;;11.40;;
5379;SDS011;2713;42.680;23.310;2024-02-16T00:55:26;13.90;;;10.20;;
5379;SDS011;2713;42.680;23.310;2024-02-16T00:57:53;17.53;;;10.90;;
5379;SDS011;2713;42.680;23.310;2024-02-16T01:00:20;13.57;;;10.33;;
5379;SDS011;2713;42.680;23.310;2024-02-16T01:02:48;14.20;;;10.47;;
5379;SDS011;2713;42.680;23.310;2024-02-16T01:05:15;16.23;;;10.40;;
5379;SDS011;2713;42.680;23.310;2024-02-16T01:07:44;14.87;;;10.87;;
5379;SDS011;2713;42.680;23.310;2024-02-16T01:10:11;12.63;;;9.97;;
5379;SDS011;2713;42.680;23.310;2024-02-16T01:12:38;14.80;;;10.80;;
5379;SDS011;2713;42.680;23.310;2024-02-16T01:15:05;13.37;;;9.83;;
5379;SDS011;2713;42.680;23.310;2024-02-16T01:17:33;13.33;;;9.90;;
5379;SDS011;2713;42.680;23.310;2024-02-16T01:19:59;15.80;;;10.20;;
5379;SDS011;2713;42.680;23.310;2024-02-16T01:22:26;15.10;;;9.93;;
5379;SDS011;2713;42.680;23.310;2024-02-16T01:24:55;12.87;;;9.77;;
5379;SDS011;2713;42.680;23.310;2024-02-16T01:27:22;15.13;;;10.63;;
5379;SDS011;2713;42.680;23.310;2024-02-16T01:29:49;15.43;;;11.20;;
5379;SDS011;2713;42.680;23.310;2024-02-16T01:32:16;17.23;;;9.90;;
5379;SDS011;2713;42.680;23.310;2024-02-16T01:34:43;14.30;;;9.65;;
5379;SDS011;2713;42.680;23.310;2024-02-16T01:37:12;13.95;;;9.25;;
5379;SDS011;2713;42.680;23.310;2024-02-16T01:39:39;15.60;;;10.13;;
5379;SDS011;2713;42.680;23.310;2024-02-16T01:42:07;14.73;;;9.85;;
5379;SDS011;2713;42.680;23.310;2024-02-16T01:44:34;14.63;;;9.50;;
5379;SDS011;2713;42.680;23.310;2024-02-16T01:47:03;12.30;;;9.27;;
5379;SDS011;2713;42.680;23.310;2024-02-16T01:49:30;12.17;;;9.30;;
5379;SDS011;2713;42.680;23.310;2024-02-16T01:51:57;12.40;;;9.70;;
5379;SDS011;2713;42.680;23.310;2024-02-16T01:54:24;12.68;;;9.68;;
5379;SDS011;2713;42.680;23.310;2024-02-16T01:56:52;13.50;;;9.25;;
5379;SDS011;2713;42.680;23.310;2024-02-16T01:59:21;10.60;;;8.55;;
5379;SDS011;2713;42.680;23.310;2024-02-16T02:01:49;13.18;;;10.05;;
5379;SDS011;2713;42.680;23.310;2024-02-16T02:04:16;18.02;;;10.77;;
5379;SDS011;2713;42.680;23.310;2024-02-16T02:06:43;12.07;;;9.10;;
5379;SDS011;2713;42.680;23.310;2024-02-16T02:09:09;17.93;;;9.73;;
5379;SDS011;2713;42.680;23.310;2024-02-16T02:11:36;14.00;;;9.40;;
5379;SDS011;2713;42.680;23.310;2024-02-16T02:14:03;12.60;;;9.25;;
5379;SDS011;2713;42.680;23.310;2024-02-16T02:16:31;12.70;;;9.90;;
5379;SDS011;2713;42.680;23.310;2024-02-16T02:18:58;14.27;;;10.05;;
5379;SDS011;2713;42.680;23.310;2024-02-16T02:21:25;13.73;;;9.55;;
5379;SDS011;2713;42.680;23.310;2024-02-16T02:23:53;12.82;;;10.30;;
5379;SDS011;2713;42.680;23.310;2024-02-16T02:26:20;13.32;;;9.50;;
5379;SDS011;2713;42.680;23.310;2024-02-16T02:28:47;12.93;;;9.63;;
5379;SDS011;2713;42.680;23.310;2024-02-16T02:34:03;14.10;;;9.35;;
5379;SDS011;2713;42.680;23.310;2024-02-16T02:36:30;15.00;;;9.90;;
5379;SDS011;2713;42.680;23.310;2024-02-16T02:38:59;11.93;;;8.88;;
5379;SDS011;2713;42.680;23.310;2024-02-16T02:41:26;13.30;;;10.23;;
5379;SDS011;2713;42.680;23.310;2024-02-16T02:43:53;15.50;;;10.20;;
5379;SDS011;2713;42.680;23.310;2024-02-16T02:46:20;13.98;;;10.05;;
5379;SDS011;2713;42.680;23.310;2024-02-16T02:48:49;15.52;;;10.15;;
5379;SDS011;2713;42.680;23.310;2024-02-16T02:51:16;14.15;;;10.50;;
5379;SDS011;2713;42.680;23.310;2024-02-16T02:53:43;13.65;;;10.50;;
5379;SDS011;2713;42.680;23.310;2024-02-16T02:56:11;16.65;;;10.43;;
5379;SDS011;2713;42.680;23.310;2024-02-16T02:58:38;12.63;;;9.95;;
5379;SDS011;2713;42.680;23.310;2024-02-16T03:01:05;16.08;;;11.32;;
5379;SDS011;2713;42.680;23.310;2024-02-16T03:03:33;16.58;;;11.65;;
5379;SDS011;2713;42.680;23.310;2024-02-16T03:06:00;15.05;;;11.60;;
5379;SDS011;2713;42.680;23.310;2024-02-16T03:08:27;15.50;;;11.10;;
5379;SDS011;2713;42.680;23.310;2024-02-16T03:10:53;14.80;;;10.82;;
5379;SDS011;2713;42.680;23.310;2024-02-16T03:13:21;14.02;;;9.95;;
5379;SDS011;2713;42.680;23.310;2024-02-16T03:15:48;15.02;;;10.73;;
5379;SDS011;2713;42.680;23.310;2024-02-16T03:18:15;15.25;;;9.93;;
5379;SDS011;2713;42.680;23.310;2024-02-16T03:20:42;12.85;;;9.90;;
5379;SDS011;2713;42.680;23.310;2024-02-16T03:23:11;11.07;;;8.73;;
5379;SDS011;2713;42.680;23.310;2024-02-16T03:25:37;11.93;;;10.13;;
5379;SDS011;2713;42.680;23.310;2024-02-16T03:28:04;12.60;;;9.73;;
5379;SDS011;2713;42.680;23.310;2024-02-16T03:30:33;11.70;;;8.50;;
5379;SDS011;2713;42.680;23.310;2024-02-16T03:33:00;11.75;;;9.27;;
5379;SDS011;2713;42.680;23.310;2024-02-16T03:35:27;12.55;;;10.30;;
5379;SDS011;2713;42.680;23.310;2024-02-16T03:37:53;12.07;;;8.65;;
5379;SDS011;2713;42.680;23.310;2024-02-16T03:40:22;10.60;;;8.20;;
5379;SDS011;2713;42.680;23.310;2024-02-16T03:42:49;11.75;;;9.07;;
5379;SDS011;2713;42.680;23.310;2024-02-16T03:45:16;12.07;;;9.18;;
5379;SDS011;2713;42.680;23.310;2024-02-16T03:47:45;10.85;;;9.23;;
5379;SDS011;2713;42.680;23.310;2024-02-16T03:50:14;12.23;;;8.80;;
5379;SDS011;2713;42.680;23.310;2024-02-16T03:52:41;11.88;;;9.95;;
5379;SDS011;2713;42.680;23.310;2024-02-16T03:55:08;11.30;;;8.65;;
5379;SDS011;2713;42.680;23.310;2024-02-16T03:57:35;11.10;;;8.77;;
5379;SDS011;2713;42.680;23.310;2024-02-16T04:00:02;10.90;;;8.15;;
5379;SDS011;2713;42.680;23.310;2024-02-16T04:02:37;11.27;;;8.25;;
5379;SDS011;2713;42.680;23.310;2024-02-16T04:05:06;10.13;;;7.20;;
5379;SDS011;2713;42.680;23.310;2024-02-16T04:07:34;11.43;;;8.70;;
5379;SDS011;2713;42.680;23.310;2024-02-16T04:10:01;12.38;;;8.60;;
5379;SDS011;2713;42.680;23.310;2024-02-16T04:12:28;16.55;;;9.02;;
5379;SDS011;2713;42.680;23.310;2024-02-16T04:14:54;11.98;;;8.57;;
5379;SDS011;2713;42.680;23.310;2024-02-16T04:17:21;11.52;;;8.77;;
5379;SDS011;2713;42.680;23.310;2024-02-16T04:19:48;13.05;;;8.73;;
5379;SDS011;2713;42.680;23.310;2024-02-16T04:22:16;13.25;;;8.55;;
5379;SDS011;2713;42.680;23.310;2024-02-16T04:24:43;11.65;;;9.05;;
5379;SDS011;2713;42.680;23.310;2024-02-16T04:27:10;11.38;;;9.02;;
5379;SDS011;2713;42.680;23.310;2024-02-16T04:29:37;15.45;;;9.32;;
5379;SDS011;2713;42.680;23.310;2024-02-16T04:32:04;14.85;;;8.70;;
5379;SDS011;2713;42.680;23.310;2024-02-16T04:34:31;13.93;;;8.75;;
5379;SDS011;2713;42.680;23.310;2024-02-16T04:36:57;10.57;;;8.82;;
5379;SDS011;2713;42.680;23.310;2024-02-16T04:39:26;11.68;;;8.95;;
5379;SDS011;2713;42.680;23.310;2024-02-16T04:41:54;12.00;;;8.80;;
5379;SDS011;2713;42.680;23.310;2024-02-16T04:44:21;12.10;;;8.93;;
5379;SDS011;2713;42.680;23.310;2024-02-16T04:46:50;12.60;;;8.18;;
5379;SDS011;2713;42.680;23.310;2024-02-16T04:49:17;15.65;;;8.68;;
5379;SDS011;2713;42.680;23.310;2024-02-16T04:51:44;14.00;;;9.20;;
5379;SDS011;2713;42.680;23.310;2024-02-16T04:54:12;19.08;;;9.25;;
5379;SDS011;2713;42.680;23.310;2024-02-16T04:56:40;14.73;;;9.73;;
5379;SDS011;2713;42.680;23.310;2024-02-16T04:59:07;14.77;;;9.93;;
5379;SDS011;2713;42.680;23.310;2024-02-16T05:01:34;14.05;;;8.95;;
5379;SDS011;2713;42.680;23.310;2024-02-16T05:04:01;12.88;;;9.38;;
5379;SDS011;2713;42.680;23.310;2024-02-16T05:06:28;11.20;;;8.82;;
5379;SDS011;2713;42.680;23.310;2024-02-16T05:08:56;15.45;;;9.55;;
5379;SDS011;2713;42.680;23.310;2024-02-16T05:11:23;17.42;;;9.30;;
5379;SDS011;2713;42.680;23.310;2024-02-16T05:13:52;12.82;;;9.27;;
5379;SDS011;2713;42.680;23.310;2024-02-16T05:16:19;17.85;;;11.65;;
5379;SDS011;2713;42.680;23.310;2024-02-16T05:18:46;17.38;;;11.07;;
5379;SDS011;2713;42.680;23.310;2024-02-16T05:21:12;15.88;;;10.60;;
5379;SDS011;2713;42.680;23.310;2024-02-16T05:23:39;13.95;;;9.55;;
5379;SDS011;2713;42.680;23.310;2024-02-16T05:26:06;16.63;;;11.20;;
5379;SDS011;2713;42.680;23.310;2024-02-16T05:28:33;19.13;;;12.07;;
5379;SDS011;2713;42.680;23.310;2024-02-16T05:31:01;16.35;;;11.18;;
5379;SDS011;2713;42.680;23.310;2024-02-16T05:33:40;17.75;;;11.70;;
5379;SDS011;2713;42.680;23.310;2024-02-16T05:36:07;15.93;;;11.15;;
5379;SDS011;2713;42.680;23.310;2024-02-16T05:38:34;14.48;;;11.13;;
5379;SDS011;2713;42.680;23.310;2024-02-16T05:41:06;14.48;;;10.85;;
5379;SDS011;2713;42.680;23.310;2024-02-16T05:43:33;14.20;;;10.52;;
5379;SDS011;2713;42.680;23.310;2024-02-16T05:46:01;18.35;;;11.68;;
5379;SDS011;2713;42.680;23.310;2024-02-16T05:48:28;18.38;;;11.35;;
5379;SDS011;2713;42.680;23.310;2024-02-16T05:50:57;14.00;;;10.68;;
5379;SDS011;2713;42.680;23.310;2024-02-16T05:53:26;20.60;;;12.10;;
5379;SDS011;2713;42.680;23.310;2024-02-16T05:55:52;20.90;;;11.32;;
5379;SDS011;2713;42.680;23.310;2024-02-16T05:58:20;16.63;;;11.60;;
5379;SDS011;2713;42.680;23.310;2024-02-16T06:00:48;17.85;;;12.48;;
5379;SDS011;2713;42.680;23.310;2024-02-16T06:03:16;21.42;;;11.77;;
5379;SDS011;2713;42.680;23.310;2024-02-16T06:05:43;25.38;;;12.70;;
5379;SDS011;2713;42.680;23.310;2024-02-16T06:08:10;17.92;;;12.23;;
5379;SDS011;2713;42.680;23.310;2024-02-16T06:10:37;19.70;;;12.70;;
5379;SDS011;2713;42.680;23.310;2024-02-16T06:13:04;17.77;;;12.35;;
5379;SDS011;2713;42.680;23.310;2024-02-16T06:15:32;22.20;;;12.95;;
5379;SDS011;2713;42.680;23.310;2024-02-16T06:17:59;22.05;;;12.30;;
5379;SDS011;2713;42.680;23.310;2024-02-16T06:20:27;19.92;;;12.35;;
5379;SDS011;2713;42.680;23.310;2024-02-16T06:22:55;17.83;;;12.85;;
5379;SDS011;2713;42.680;23.310;2024-02-16T06:25:21;20.83;;;12.57;;
5379;SDS011;2713;42.680;23.310;2024-02-16T06:27:48;22.95;;;13.30;;
5379;SDS011;2713;42.680;23.310;2024-02-16T06:30:15;23.13;;;13.80;;
5379;SDS011;2713;42.680;23.310;2024-02-16T06:32:42;18.65;;;13.05;;
5379;SDS011;2713;42.680;23.310;2024-02-16T06:35:09;20.85;;;13.30;;
5379;SDS011;2713;42.680;23.310;2024-02-16T06:37:37;19.83;;;12.67;;
5379;SDS011;2713;42.680;23.310;2024-02-16T06:40:04;17.48;;;13.00;;
5379;SDS011;2713;42.680;23.310;2024-02-16T06:42:34;24.45;;;13.05;;
5379;SDS011;2713;42.680;23.310;2024-02-16T06:45:01;20.13;;;13.37;;
5379;SDS011;2713;42.680;23.310;2024-02-16T06:47:28;19.85;;;12.93;;
5379;SDS011;2713;42.680;23.310;2024-02-16T06:49:55;21.20;;;12.90;;
5379;SDS011;2713;42.680;23.310;2024-02-16T06:52:22;17.33;;;12.45;;
5379;SDS011;2713;42.680;23.310;2024-02-16T06:54:50;21.93;;;13.70;;
5379;SDS011;2713;42.680;23.310;2024-02-16T06:57:17;19.60;;;13.37;;
5379;SDS011;2713;42.680;23.310;2024-02-16T06:59:45;20.83;;;14.17;;
5379;SDS011;2713;42.680;23.310;2024-02-16T07:02:11;19.27;;;13.77;;
5379;SDS011;2713;42.680;23.310;2024-02-16T07:04:40;23.33;;;13.87;;
5379;SDS011;2713;42.680;23.310;2024-02-16T07:07:07;20.97;;;14.33;;
5379;SDS011;2713;42.680;23.310;2024-02-16T07:09:33;24.30;;;14.40;;
5379;SDS011;2713;42.680;23.310;2024-02-16T07:12:02;19.37;;;11.90;;
5379;SDS011;2713;42.680;23.310;2024-02-16T07:14:30;16.47;;;11.20;;
5379;SDS011;2713;42.680;23.310;2024-02-16T07:16:56;13.33;;;9.60;;
5379;SDS011;2713;42.680;23.310;2024-02-16T07:19:23;15.90;;;10.10;;
5379;SDS011;2713;42.680;23.310;2024-02-16T07:21:50;21.27;;;10.87;;
5379;SDS011;2713;42.680;23.310;2024-02-16T07:24:17;13.30;;;10.00;;
5379;SDS011;2713;42.680;23.310;2024-02-16T07:26:44;13.07;;;10.73;;
5379;SDS011;2713;42.680;23.310;2024-02-16T07:29:12;14.00;;;9.20;;
5379;SDS011;2713;42.680;23.310;2024-02-16T07:31:41;17.10;;;10.63;;
5379;SDS011;2713;42.680;23.310;2024-02-16T07:34:08;12.63;;;9.63;;
5379;SDS011;2713;42.680;23.310;2024-02-16T07:36:36;15.50;;;9.20;;
5379;SDS011;2713;42.680;23.310;2024-02-16T07:39:03;19.00;;;10.57;;
5379;SDS011;2713;42.680;23.310;2024-02-16T07:41:30;14.47;;;9.30;;
5379;SDS011;2713;42.680;23.310;2024-02-16T07:43:57;17.07;;;9.60;;
5379;SDS011;2713;42.680;23.310;2024-02-16T07:46:32;13.23;;;9.87;;
5379;SDS011;2713;42.680;23.310;2024-02-16T07:49:04;17.10;;;10.77;;
5379;SDS011;2713;42.680;23.310;2024-02-16T07:51:30;15.70;;;10.80;;
5379;SDS011;2713;42.680;23.310;2024-02-16T07:53:57;16.17;;;11.10;;
5379;SDS011;2713;42.680;23.310;2024-02-16T07:56:24;19.87;;;10.97;;
5379;SDS011;2713;42.680;23.310;2024-02-16T07:58:51;13.67;;;9.70;;
5379;SDS011;2713;42.680;23.310;2024-02-16T08:01:18;15.53;;;11.00;;
5379;SDS011;2713;42.680;23.310;2024-02-16T08:03:46;12.87;;;10.13;;
5379;SDS011;2713;42.680;23.310;2024-02-16T08:06:13;18.37;;;13.00;;
5379;SDS011;2713;42.680;23.310;2024-02-16T08:08:41;16.93;;;12.60;;
5379;SDS011;2713;42.680;23.310;2024-02-16T08:11:08;29.37;;;20.27;;
5379;SDS011;2713;42.680;23.310;2024-02-16T08:13:35;17.70;;;11.73;;
5379;SDS011;2713;42.680;23.310;2024-02-16T08:16:02;11.70;;;9.30;;
5379;SDS011;2713;42.680;23.310;2024-02-16T08:18:32;16.47;;;9.60;;
5379;SDS011;2713;42.680;23.310;2024-02-16T08:21:00;20.23;;;11.70;;
5379;SDS011;2713;42.680;23.310;2024-02-16T08:23:27;16.77;;;11.27;;
5379;SDS011;2713;42.680;23.310;2024-02-16T08:25:53;19.07;;;12.07;;
5379;SDS011;2713;42.680;23.310;2024-02-16T08:28:20;14.20;;;12.10;;
5379;SDS011;2713;42.680;23.310;2024-02-16T08:30:47;25.60;;;15.73;;
5379;SDS011;2713;42.680;23.310;2024-02-16T08:33:14;23.57;;;15.40;;
5379;SDS011;2713;42.680;23.310;2024-02-16T08:35:40;17.60;;;13.53;;
5379;SDS011;2713;42.680;23.310;2024-02-16T08:38:09;28.67;;;17.07;;
5379;SDS011;2713;42.680;23.310;2024-02-16T08:40:36;25.50;;;17.27;;
5379;SDS011;2713;42.680;23.310;2024-02-16T08:43:03;21.40;;;15.77;;
5379;SDS011;2713;42.680;23.310;2024-02-16T08:45:30;23.07;;;15.50;;
5379;SDS011;2713;42.680;23.310;2024-02-16T08:47:57;27.87;;;17.53;;
5379;SDS011;2713;42.680;23.310;2024-02-16T08:50:23;22.00;;;15.03;;
5379;SDS011;2713;42.680;23.310;2024-02-16T08:52:51;24.43;;;14.90;;
5379;SDS011;2713;42.680;23.310;2024-02-16T08:55:19;19.10;;;14.83;;
5379;SDS011;2713;42.680;23.310;2024-02-16T08:57:46;17.73;;;14.90;;
5379;SDS011;2713;42.680;23.310;2024-02-16T09:00:13;21.97;;;14.47;;
5379;SDS011;2713;42.680;23.310;2024-02-16T09:02:41;22.93;;;14.90;;
5379;SDS011;2713;42.680;23.310;2024-02-16T09:05:08;25.07;;;15.83;;
5379;SDS011;2713;42.680;23.310;2024-02-16T09:07:35;18.80;;;14.00;;
5379;SDS011;2713;42.680;23.310;2024-02-16T09:10:03;19.07;;;13.53;;
5379;SDS011;2713;42.680;23.310;2024-02-16T09:12:32;17.30;;;12.40;;
5379;SDS011;2713;42.680;23.310;2024-02-16T09:14:59;13.43;;;10.90;;
5379;SDS011;2713;42.680;23.310;2024-02-16T09:17:26;11.47;;;9.27;;
5379;SDS011;2713;42.680;23.310;2024-02-16T09:19:52;13.80;;;9.87;;
5379;SDS011;2713;42.680;23.310;2024-02-16T09:22:19;12.37;;;8.73;;
5379;SDS011;2713;42.680;23.310;2024-02-16T09:24:46;10.10;;;7.40;;
5379;SDS011;2713;42.680;23.310;2024-02-16T09:27:13;9.70;;;6.97;;
5379;SDS011;2713;42.680;23.310;2024-02-16T09:29:41;10.77;;;7.17;;
5379;SDS011;2713;42.680;23.310;2024-02-16T09:32:08;10.83;;;7.40;;
5379;SDS011;2713;42.680;23.310;2024-02-16T09:34:36;7.70;;;6.77;;
5379;SDS011;2713;42.680;23.310;2024-02-16T09:37:03;6.97;;;5.63;;
5379;SDS011;2713;42.680;23.310;2024-02-16T09:39:30;11.33;;;6.80;;
5379;SDS011;2713;42.680;23.310;2024-02-16T09:41:57;5.57;;;5.07;;
5379;SDS011;2713;42.680;23.310;2024-02-16T09:44:24;9.07;;;6.00;;
5379;SDS011;2713;42.680;23.310;2024-02-16T09:46:53;6.40;;;5.80;;
5379;SDS011;2713;42.680;23.310;2024-02-16T09:49:20;7.27;;;6.57;;
5379;SDS011;2713;42.680;23.310;2024-02-16T09:51:47;9.33;;;6.70;;
5379;SDS011;2713;42.680;23.310;2024-02-16T09:54:14;9.00;;;7.07;;
5379;SDS011;2713;42.680;23.310;2024-02-16T09:56:41;17.73;;;7.37;;
5379;SDS011;2713;42.680;23.310;2024-02-16T09:59:10;9.70;;;7.50;;
5379;SDS011;2713;42.680;23.310;2024-02-16T10:01:37;12.43;;;7.47;;
5379;SDS011;2713;42.680;23.310;2024-02-16T10:04:08;6.87;;;5.87;;
5379;SDS011;2713;42.680;23.310;2024-02-16T10:06:45;6.07;;;5.47;;
5379;SDS011;2713;42.680;23.310;2024-02-16T10:09:21;7.00;;;5.87;;
5379;SDS011;2713;42.680;23.310;2024-02-16T10:11:49;7.00;;;5.97;;
5379;SDS011;2713;42.680;23.310;2024-02-16T10:14:16;6.03;;;5.40;;
5379;SDS011;2713;42.680;23.310;2024-02-16T10:16:44;7.83;;;5.87;;
5379;SDS011;2713;42.680;23.310;2024-02-16T10:19:12;6.90;;;5.93;;
5379;SDS011;2713;42.680;23.310;2024-02-16T10:21:39;7.20;;;6.50;;
5379;SDS011;2713;42.680;23.310;2024-02-16T10:24:07;7.83;;;5.73;;
5379;SDS011;2713;42.680;23.310;2024-02-16T10:26:35;6.40;;;5.73;;
5379;SDS011;2713;42.680;23.310;2024-02-16T10:29:03;8.03;;;5.87;;
5379;SDS011;2713;42.680;23.310;2024-02-16T10:31:31;8.10;;;6.47;;
5379;SDS011;2713;42.680;23.310;2024-02-16T10:33:58;8.20;;;5.50;;
5379;SDS011;2713;42.680;23.310;2024-02-16T10:36:32;7.17;;;6.47;;
5379;SDS011;2713;42.680;23.310;2024-02-16T10:39:00;6.80;;;5.93;;
5379;SDS011;2713;42.680;23.310;2024-02-16T10:41:30;6.33;;;5.73;;
5379;SDS011;2713;42.680;23.310;2024-02-16T10:44:01;7.17;;;6.33;;
5379;SDS011;2713;42.680;23.310;2024-02-16T10:46:28;6.10;;;5.50;;
5379;SDS011;2713;42.680;23.310;2024-02-16T10:48:55;6.53;;;5.33;;
5379;SDS011;2713;42.680;23.310;2024-02-16T10:51:23;6.70;;;6.10;;
5379;SDS011;2713;42.680;23.310;2024-02-16T10:53:53;9.70;;;6.20;;
5379;SDS011;2713;42.680;23.310;2024-02-16T10:56:32;7.20;;;6.03;;
5379;SDS011;2713;42.680;23.310;2024-02-16T10:59:00;8.57;;;6.10;;
5379;SDS011;2713;42.680;23.310;2024-02-16T11:01:36;7.20;;;6.30;;
5379;SDS011;2713;42.680;23.310;2024-02-16T11:04:04;6.40;;;5.77;;
5379;SDS011;2713;42.680;23.310;2024-02-16T11:06:44;7.50;;;6.30;;
5379;SDS011;2713;42.680;23.310;2024-02-16T11:09:25;6.73;;;6.03;;
5379;SDS011;2713;42.680;23.310;2024-02-16T11:11:52;7.60;;;5.93;;
5379;SDS011;2713;42.680;23.310;2024-02-16T11:14:20;8.63;;;6.80;;
5379;SDS011;2713;42.680;23.310;2024-02-16T11:16:47;7.53;;;6.77;;
5379;SDS011;2713;42.680;23.310;2024-02-16T11:19:14;6.53;;;5.83;;
5379;SDS011;2713;42.680;23.310;2024-02-16T11:21:57;6.20;;;5.60;;
5379;SDS011;2713;42.680;23.310;2024-02-16T11:24:32;11.40;;;6.50;;
5379;SDS011;2713;42.680;23.310;2024-02-16T11:27:00;8.87;;;6.67;;
5379;SDS011;2713;42.680;23.310;2024-02-16T11:29:29;8.80;;;6.73;;
5379;SDS011;2713;42.680;23.310;2024-02-16T11:31:58;6.73;;;5.70;;
5379;SDS011;2713;42.680;23.310;2024-02-16T11:34:25;8.13;;;6.90;;
5379;SDS011;2713;42.680;23.310;2024-02-16T11:36:52;7.40;;;6.23;;
5379;SDS011;2713;42.680;23.310;2024-02-16T11:39:20;8.07;;;6.33;;
5379;SDS011;2713;42.680;23.310;2024-02-16T11:41:48;8.80;;;6.00;;
5379;SDS011;2713;42.680;23.310;2024-02-16T11:44:27;6.37;;;5.80;;
5379;SDS011;2713;42.680;23.310;2024-02-16T11:46:54;6.43;;;5.83;;
5379;SDS011;2713;42.680;23.310;2024-02-16T11:49:20;8.60;;;6.50;;
5379;SDS011;2713;42.680;23.310;2024-02-16T11:51:47;7.23;;;6.40;;
5379;SDS011;2713;42.680;23.310;2024-02-16T11:54:14;8.10;;;7.23;;
5379;SDS011;2713;42.680;23.310;2024-02-16T11:56:42;7.00;;;5.57;;
5379;SDS011;2713;42.680;23.310;2024-02-16T11:59:13;6.83;;;6.13;;
5379;SDS011;2713;42.680;23.310;2024-02-16T12:01:48;7.33;;;6.10;;
5379;SDS011;2713;42.680;23.310;2024-02-16T12:04:19;7.10;;;6.40;;
5379;SDS011;2713;42.680;23.310;2024-02-16T12:06:47;6.40;;;5.17;;
5379;SDS011;2713;42.680;23.310;2024-02-16T12:09:14;6.73;;;5.03;;
5379;SDS011;2713;42.680;23.310;2024-02-16T12:11:41;6.00;;;5.50;;
5379;SDS011;2713;42.680;23.310;2024-02-16T12:14:08;4.80;;;4.30;;
5379;SDS011;2713;42.680;23.310;2024-02-16T12:16:37;5.83;;;5.33;;
5379;SDS011;2713;42.680;23.310;2024-02-16T12:19:04;5.53;;;4.73;;
5379;SDS011;2713;42.680;23.310;2024-02-16T12:21:31;6.97;;;5.30;;
5379;SDS011;2713;42.680;23.310;2024-02-16T12:23:58;7.40;;;5.43;;
5379;SDS011;2713;42.680;23.310;2024-02-16T12:26:25;5.07;;;4.67;;
5379;SDS011;2713;42.680;23.310;2024-02-16T12:28:51;6.83;;;4.90;;
5379;SDS011;2713;42.680;23.310;2024-02-16T12:31:19;7.10;;;5.20;;
5379;SDS011;2713;42.680;23.310;2024-02-16T12:33:47;7.70;;;4.93;;
5379;SDS011;2713;42.680;23.310;2024-02-16T12:36:14;6.13;;;5.30;;
5379;SDS011;2713;42.680;23.310;2024-02-16T12:38:42;5.27;;;4.77;;
5379;SDS011;2713;42.680;23.310;2024-02-16T12:41:09;5.77;;;5.17;;
5379;SDS011;2713;42.680;23.310;2024-02-16T12:43:36;7.00;;;5.37;;
5379;SDS011;2713;42.680;23.310;2024-02-16T12:46:03;7.70;;;6.10;;
5379;SDS011;2713;42.680;23.310;2024-02-16T12:48:30;8.50;;;5.50;;
5379;SDS011;2713;42.680;23.310;2024-02-16T12:50:58;6.23;;;5.63;;
5379;SDS011;2713;42.680;23.310;2024-02-16T12:53:25;5.90;;;5.30;;
5379;SDS011;2713;42.680;23.310;2024-02-16T12:55:54;7.40;;;5.97;;
5379;SDS011;2713;42.680;23.310;2024-02-16T12:58:21;6.07;;;5.53;;
5379;SDS011;2713;42.680;23.310;2024-02-16T13:00:48;11.13;;;5.77;;
5379;SDS011;2713;42.680;23.310;2024-02-16T13:03:15;8.73;;;5.50;;
5379;SDS011;2713;42.680;23.310;2024-02-16T13:05:41;6.73;;;5.60;;
5379;SDS011;2713;42.680;23.310;2024-02-16T13:08:09;9.17;;;6.17;;
5379;SDS011;2713;42.680;23.310;2024-02-16T13:10:36;6.37;;;5.70;;
5379;SDS011;2713;42.680;23.310;2024-02-16T13:13:03;6.93;;;5.80;;
5379;SDS011;2713;42.680;23.310;2024-02-16T13:15:30;6.83;;;5.87;;
5379;SDS011;2713;42.680;23.310;2024-02-16T13:17:57;5.43;;;4.93;;
5379;SDS011;2713;42.680;23.310;2024-02-16T13:20:24;5.83;;;5.10;;
5379;SDS011;2713;42.680;23.310;2024-02-16T13:22:51;6.07;;;4.57;;
5379;SDS011;2713;42.680;23.310;2024-02-16T13:25:19;5.40;;;4.90;;
5379;SDS011;2713;42.680;23.310;2024-02-16T13:27:46;7.33;;;5.07;;
5379;SDS011;2713;42.680;23.310;2024-02-16T13:30:13;8.03;;;6.20;;
5379;SDS011;2713;42.680;23.310;2024-02-16T13:32:40;5.67;;;5.07;;
5379;SDS011;2713;42.680;23.310;2024-02-16T13:35:07;9.00;;;5.40;;
5379;SDS011;2713;42.680;23.310;2024-02-16T13:37:34;6.70;;;5.43;;
5379;SDS011;2713;42.680;23.310;2024-02-16T13:40:01;6.63;;;5.30;;
5379;SDS011;2713;42.680;23.310;2024-02-16T13:42:33;5.97;;;5.37;;
5379;SDS011;2713;42.680;23.310;2024-02-16T13:45:00;6.80;;;5.30;;
5379;SDS011;2713;42.680;23.310;2024-02-16T13:47:27;5.87;;;4.53;;
5379;SDS011;2713;42.680;23.310;2024-02-16T13:49:54;4.67;;;4.27;;
5379;SDS011;2713;42.680;23.310;2024-02-16T13:52:23;5.37;;;4.87;;
5379;SDS011;2713;42.680;23.310;2024-02-16T13:54:51;5.73;;;4.00;;
5379;SDS011;2713;42.680;23.310;2024-02-16T13:57:18;5.47;;;4.93;;
5379;SDS011;2713;42.680;23.310;2024-02-16T13:59:46;7.47;;;4.70;;
5379;SDS011;2713;42.680;23.310;2024-02-16T14:02:13;7.40;;;5.00;;
5379;SDS011;2713;42.680;23.310;2024-02-16T14:04:40;9.73;;;5.77;;
5379;SDS011;2713;42.680;23.310;2024-02-16T14:07:07;7.00;;;5.07;;
5379;SDS011;2713;42.680;23.310;2024-02-16T14:09:35;6.93;;;5.73;;
5379;SDS011;2713;42.680;23.310;2024-02-16T14:12:02;6.00;;;5.33;;
5379;SDS011;2713;42.680;23.310;2024-02-16T14:14:29;9.03;;;5.00;;
5379;SDS011;2713;42.680;23.310;2024-02-16T14:16:57;5.33;;;4.80;;
5379;SDS011;2713;42.680;23.310;2024-02-16T14:19:24;6.17;;;5.10;;
5379;SDS011;2713;42.680;23.310;2024-02-16T14:21:50;5.57;;;4.53;;
5379;SDS011;2713;42.680;23.310;2024-02-16T14:24:17;5.43;;;4.93;;
5379;SDS011;2713;42.680;23.310;2024-02-16T14:26:45;5.13;;;4.57;;
5379;SDS011;2713;42.680;23.310;2024-02-16T14:29:12;6.03;;;4.60;;
5379;SDS011;2713;42.680;23.310;2024-02-16T14:31:39;4.60;;;4.30;;
5379;SDS011;2713;42.680;23.310;2024-02-16T14:34:07;5.80;;;5.20;;
5379;SDS011;2713;42.680;23.310;2024-02-16T14:36:34;4.30;;;3.90;;
5379;SDS011;2713;42.680;23.310;2024-02-16T14:39:01;10.80;;;4.50;;
5379;SDS011;2713;42.680;23.310;2024-02-16T14:41:28;5.43;;;4.70;;
5379;SDS011;2713;42.680;23.310;2024-02-16T14:43:54;6.60;;;5.00;;
5379;SDS011;2713;42.680;23.310;2024-02-16T14:46:25;4.83;;;4.43;;
5379;SDS011;2713;42.680;23.310;2024-02-16T14:48:52;4.50;;;4.10;;
5379;SDS011;2713;42.680;23.310;2024-02-16T14:51:20;7.33;;;4.60;;
5379;SDS011;2713;42.680;23.310;2024-02-16T14:53:47;5.40;;;3.97;;